Time;durP1;ratioP1;P1;durP2;ratioP2;P2;SDS_P1;SDS_P2;PMS_P1;PMS_P2;Temp;Humidity;BMP_temperature;BMP_pressure;BME280_temperature;BME280_humidity;BME280_pressure;Samples;Min_cycle;Max_cycle;Signal;HPM_P1;HPM_P2
2023/10/16 07:23:47;;;;;;;10.88;9.75;;;;;;;-145.79;91.30;79043.66;5292686;28;20350;-71
2023/10/16 07:26:19;;;;;;;8.48;7.32;;;;;;;-145.79;91.76;79047.91;5286895;28;20402;-71
2023/10/16 07:28:53;;;;;;;9.85;8.52;;;;;;;-145.79;92.22;79041.53;5283287;28;20025;-71
2023/10/16 07:31:24;;;;;;;13.85;9.15;;;;;;;-145.79;92.62;79039.41;5290810;28;20016;-71
2023/10/16 07:34:04;;;;;;;8.82;7.93;;;;;;;-145.79;92.71;79037.28;5291152;28;20170;-71
2023/10/16 07:36:35;;;;;;;11.77;7.97;;;;;;;-145.79;92.75;79037.28;5289480;28;20051;-71
2023/10/16 07:39:07;;;;;;;10.13;8.52;;;;;;;-145.79;92.87;79022.44;5290869;28;20035;-72
2023/10/16 07:41:38;;;;;;;10.38;8.82;;;;;;;-145.79;92.79;79043.66;5287819;28;20028;-70
2023/10/16 07:44:09;;;;;;;9.65;8.52;;;;;;;-145.79;93.94;79009.72;5286691;28;20037;-70
2023/10/16 07:46:44;;;;;;;9.75;8.85;;;;;;;-145.79;93.61;78992.75;5280291;28;20024;-70
2023/10/16 07:49:15;;;;;;;9.75;8.85;;;;;;;-145.79;93.43;78992.75;5288322;28;20028;-71
2023/10/16 07:51:52;;;;;;;9.88;8.55;;;;;;;-145.79;93.42;78977.91;5291268;28;20028;-72
2023/10/16 07:54:28;;;;;;;9.32;8.43;;;;;;;-145.79;93.40;78973.69;5297412;28;20073;-71
2023/10/16 07:57:03;;;;;;;11.30;8.65;;;;;;;-145.79;93.17;78967.31;5289022;28;20028;-71
2023/10/16 07:59:36;;;;;;;8.40;7.60;;;;;;;-145.79;92.80;78960.94;5286134;28;20031;-71
2023/10/16 08:02:17;;;;;;;116.25;103.32;;;;;;;-145.79;92.37;78975.78;5280902;28;20025;-71
2023/10/16 08:04:51;;;;;;;34.58;31.17;;;;;;;-145.79;92.58;78980.03;5279317;28;20044;-72
2023/10/16 08:07:46;;;;;;;12.27;10.40;;;;;;;-145.79;93.26;78975.78;5295415;28;20036;-72
2023/10/16 08:10:40;;;;;;;10.05;9.15;;;;;;;-145.79;93.50;78967.31;5285968;28;20133;-72
2023/10/16 08:13:12;;;;;;;8.57;7.68;;;;;;;-145.79;93.81;78946.09;5258188;28;20033;-71
2023/10/16 08:15:51;;;;;;;9.40;7.72;;;;;;;-145.79;93.83;78944.00;5284912;28;20468;-72
2023/10/16 08:18:25;;;;;;;9.82;8.73;;;;;;;-145.79;93.78;78937.63;5285636;28;20107;-72
2023/10/16 08:21:06;;;;;;;8.93;8.02;;;;;;;-145.79;94.06;78927.03;5286037;28;20031;-72
2023/10/16 08:23:38;;;;;;;8.95;7.75;;;;;;;-145.79;94.24;78939.75;5311503;28;20055;-72
2023/10/16 08:26:19;;;;;;;8.82;7.18;;;;;;;-145.79;94.59;78937.63;5321447;28;20109;-71
2023/10/16 08:28:54;;;;;;;9.18;7.68;;;;;;;-145.79;94.79;78924.91;5306566;28;20024;-72
2023/10/16 08:31:41;;;;;;;8.37;7.67;;;;;;;-145.79;95.15;78912.19;5301226;28;20024;-72
2023/10/16 08:34:24;;;;;;;9.75;8.82;;;;;;;-145.79;94.86;78907.94;5300073;28;20024;-71
2023/10/16 08:36:56;;;;;;;8.10;7.30;;;;;;;-145.79;94.78;78907.94;5289330;28;20116;-72
2023/10/16 08:39:27;;;;;;;8.43;7.68;;;;;;;-145.79;95.20;78890.97;5288738;28;20118;-71
2023/10/16 08:42:01;;;;;;;11.48;7.80;;;;;;;-145.79;94.94;78886.75;5298010;28;20462;-71
2023/10/16 08:44:33;;;;;;;8.65;7.75;;;;;;;-145.79;95.39;78882.50;5300733;28;20107;-71
2023/10/16 08:49:37;;;;;;;10.40;7.65;;;;;;;-145.79;95.55;78878.25;5293176;28;20037;-72
2023/10/16 08:52:09;;;;;;;7.22;6.50;;;;;;;-145.79;95.69;78871.91;5288652;28;20491;-70
2023/10/16 08:57:22;;;;;;;9.10;6.50;;;;;;;-145.79;94.84;78852.81;5298113;28;20175;-72
2023/10/16 08:59:58;;;;;;;8.52;7.07;;;;;;;-145.79;95.10;78844.31;5300959;28;20035;-71
2023/10/16 09:02:29;;;;;;;7.63;6.85;;;;;;;-145.79;95.29;78827.38;5278350;28;20033;-72
2023/10/16 09:05:07;;;;;;;8.68;7.90;;;;;;;-145.79;94.58;78816.75;5293522;28;20081;-72
2023/10/16 09:07:41;;;;;;;8.70;7.10;;;;;;;-145.79;94.55;78812.53;5299715;28;20464;-71
2023/10/16 09:10:12;;;;;;;9.95;6.65;;;;;;;-145.79;93.80;78801.91;5286504;28;20028;-73
2023/10/16 09:12:53;;;;;;;8.52;6.40;;;;;;;-145.79;93.71;78784.97;5286550;28;20471;-73
2023/10/16 09:15:24;;;;;;;7.30;6.68;;;;;;;-145.79;93.36;78789.19;5279949;28;20020;-74
2023/10/16 09:18:04;;;;;;;7.18;6.55;;;;;;;-145.79;93.79;78770.13;5305867;28;20073;-73
2023/10/16 09:20:41;;;;;;;6.47;5.43;;;;;;;-145.79;93.08;78759.50;5306385;28;20439;-73
2023/10/16 09:23:13;;;;;;;7.47;5.20;;;;;;;-145.79;92.70;78748.91;5292093;28;20044;-72
2023/10/16 09:25:46;;;;;;;7.68;4.82;;;;;;;-145.79;92.66;78744.66;5276212;28;20040;-72
2023/10/16 09:28:20;;;;;;;6.82;5.13;;;;;;;-145.79;91.59;78744.66;5279579;28;20415;-73
2023/10/16 09:30:52;;;;;;;5.60;5.07;;;;;;;-145.79;91.77;78725.59;5296614;28;20032;-72
2023/10/16 09:33:23;;;;;;;6.30;5.47;;;;;;;-145.79;92.16;78719.22;5296355;28;20493;-72
2023/10/16 09:36:00;;;;;;;6.28;4.50;;;;;;;-145.79;92.05;78698.03;5295661;28;20024;-72
2023/10/16 09:38:34;;;;;;;6.75;5.03;;;;;;;-145.79;92.23;78693.78;5292027;28;20111;-72
2023/10/16 09:43:56;;;;;;;6.53;4.20;;;;;;;-145.79;91.71;78655.63;5263600;28;20123;-72
2023/10/16 09:49:23;;;;;;;7.75;4.25;;;;;;;-145.79;89.95;78636.53;5284369;28;20033;-72
2023/10/16 09:51:57;;;;;;;3.97;3.13;;;;;;;-145.79;89.50;78634.41;5291623;28;20028;-72
2023/10/16 09:54:30;;;;;;;3.80;2.50;;;;;;;-145.79;85.69;78625.94;5287344;28;20031;-71
2023/10/16 09:57:09;;;;;;;4.35;2.22;;;;;;;-145.79;84.29;78615.34;5297000;28;20039;-72
2023/10/16 09:59:43;;;;;;;4.75;2.60;;;;;;;-145.79;83.86;78606.84;5262849;28;20032;-72
2023/10/16 10:02:18;;;;;;;4.30;2.50;;;;;;;-145.79;82.80;78602.59;5280779;28;20035;-72
2023/10/16 10:04:59;;;;;;;6.10;3.22;;;;;;;-145.79;84.00;78594.13;5286357;28;20097;-72
2023/10/16 10:07:34;;;;;;;5.30;2.80;;;;;;;-145.79;84.57;78589.88;5291482;28;20355;-71
2023/10/16 10:13:15;;;;;;;4.15;2.40;;;;;;;-145.79;79.78;78575.03;5285058;28;20040;-72
2023/10/16 10:15:49;;;;;;;2.67;2.15;;;;;;;-145.79;79.98;78581.41;5290355;28;20081;-72
2023/10/16 10:18:42;;;;;;;4.63;2.80;;;;;;;-145.79;79.96;78568.69;5283460;28;20031;-72
2023/10/16 10:21:18;;;;;;;3.88;2.10;;;;;;;-145.79;79.15;78560.19;5261963;28;20039;-71
2023/10/16 10:23:50;;;;;;;3.00;2.22;;;;;;;-145.79;77.78;78547.47;5288209;28;20391;-72
2023/10/16 10:26:24;;;;;;;3.95;1.90;;;;;;;-145.79;76.28;78534.75;5262244;28;20025;-72
2023/10/16 10:29:09;;;;;;;4.43;3.13;;;;;;;-145.79;77.08;78522.03;5261451;28;20025;-71
2023/10/16 10:31:44;;;;;;;2.92;2.15;;;;;;;-145.79;75.87;78522.03;5262510;28;20032;-72
2023/10/16 10:34:24;;;;;;;4.97;3.25;;;;;;;-145.79;75.82;78509.31;5282640;28;20020;-72
2023/10/16 10:36:58;;;;;;;4.15;2.30;;;;;;;-145.79;76.85;78490.22;5285856;28;20044;-72
2023/10/16 10:39:40;;;;;;;4.00;2.47;;;;;;;-145.79;74.66;78496.59;5291623;28;20035;-72
2023/10/16 10:42:23;;;;;;;4.00;3.53;;;;;;;-145.79;73.67;78500.84;5299287;28;20367;-72
2023/10/16 10:47:47;;;;;;;3.60;2.58;;;;;;;-145.79;73.34;78483.88;5287730;28;20039;-72
2023/10/16 10:50:21;;;;;;;3.38;2.58;;;;;;;-145.79;74.28;78479.63;5269112;28;20025;-72
2023/10/16 10:52:52;;;;;;;3.63;1.85;;;;;;;-145.79;71.97;78481.75;5281207;28;20104;-72
2023/10/16 10:55:25;;;;;;;5.63;2.33;;;;;;;-145.79;72.83;78471.16;5270339;28;20104;-72
2023/10/16 10:58:00;;;;;;;2.85;1.70;;;;;;;-145.79;72.33;78460.56;5284263;28;20039;-72
2023/10/16 11:03:08;;;;;;;5.25;2.35;;;;;;;-145.79;70.86;78433.00;5293000;28;20044;-72
2023/10/16 11:05:42;;;;;;;5.30;2.13;;;;;;;-145.79;69.64;78437.22;5291324;28;20052;-72
2023/10/16 11:10:46;;;;;;;3.03;2.13;;;;;;;-145.79;70.66;78428.75;5268656;28;20024;-74
2023/10/16 11:13:21;;;;;;;8.25;2.70;;;;;;;-145.79;70.63;78422.38;5301648;28;20016;-72
2023/10/16 11:15:54;;;;;;;4.47;1.98;;;;;;;-145.79;68.93;78428.75;5295051;28;20031;-73
2023/10/16 11:18:26;;;;;;;2.75;1.70;;;;;;;-145.79;69.17;78424.50;5269024;28;20147;-73
2023/10/16 11:21:06;;;;;;;2.90;1.70;;;;;;;-145.79;70.29;78413.91;5294040;28;20056;-73
2023/10/16 11:23:38;;;;;;;3.13;1.80;;;;;;;-145.79;70.45;78407.53;5287820;28;20058;-73
2023/10/16 11:26:13;;;;;;;2.42;1.48;;;;;;;-145.79;68.60;78413.91;5288008;28;20028;-73
2023/10/16 11:28:48;;;;;;;4.07;1.30;;;;;;;-145.79;68.86;78407.53;5287506;28;20033;-74
2023/10/16 11:31:20;;;;;;;2.50;1.50;;;;;;;-145.79;68.79;78394.81;5289466;28;20035;-74
2023/10/16 11:34:02;;;;;;;5.75;2.45;;;;;;;-145.79;68.77;78379.97;5278696;28;20036;-72
2023/10/16 11:36:34;;;;;;;4.22;1.55;;;;;;;-145.79;66.39;78377.88;5271649;28;20377;-66
2023/10/16 11:39:07;;;;;;;5.18;1.42;;;;;;;-145.79;66.33;78358.78;5268533;28;20029;-67
2023/10/16 11:41:40;;;;;;;2.40;1.50;;;;;;;-145.79;67.75;78333.34;5280173;28;20029;-67
2023/10/16 11:44:15;;;;;;;3.13;1.42;;;;;;;-145.79;69.46;78310.03;5286045;28;20028;-67
2023/10/16 11:46:52;;;;;;;1.67;1.58;;;;;;;-145.79;67.32;78301.53;5273010;28;20033;-68
2023/10/16 11:49:24;;;;;;;2.67;1.35;;;;;;;-145.79;64.56;78318.50;5270971;28;20123;-68
2023/10/16 11:52:08;;;;;;;2.97;1.70;;;;;;;-145.79;64.68;78314.25;5274337;28;20032;-68
2023/10/16 11:54:42;;;;;;;4.70;2.85;;;;;;;-145.79;65.71;78305.78;5270486;28;20050;-67
2023/10/16 11:57:13;;;;;;;2.75;1.50;;;;;;;-145.79;68.53;78284.56;5278078;28;20380;-69
2023/10/16 11:59:45;;;;;;;3.92;2.50;;;;;;;-145.79;68.22;78280.34;5271706;28;20034;-67
2023/10/16 12:02:22;;;;;;;4.22;2.20;;;;;;;-145.79;67.05;78297.31;5263194;28;20036;-67
2023/10/16 12:04:57;;;;;;;29.25;26.52;;;;;;;-145.79;67.05;78286.69;5287556;28;20054;-67
2023/10/16 12:07:28;;;;;;;3.55;3.03;;;;;;;-145.79;66.92;78276.09;5278194;28;20086;-67
2023/10/16 12:10:05;;;;;;;3.67;2.38;;;;;;;-145.79;70.45;78231.56;5280643;28;20021;-67
2023/10/16 12:12:36;;;;;;;3.47;2.33;;;;;;;-145.79;68.29;78242.19;5281206;28;20033;-67
2023/10/16 12:15:10;;;;;;;4.43;2.00;;;;;;;-145.79;68.07;78242.19;5284121;28;20387;-67
2023/10/16 12:17:43;;;;;;;5.97;2.30;;;;;;;-145.79;69.17;78227.34;5281337;28;20025;-67
2023/10/16 12:20:16;;;;;;;7.15;2.53;;;;;;;-145.79;66.91;78250.66;5289379;28;20025;-67
2023/10/16 12:22:49;;;;;;;3.95;2.25;;;;;;;-145.79;69.60;78216.72;5284178;28;20033;-66
2023/10/16 12:25:23;;;;;;;4.00;3.08;;;;;;;-145.79;66.91;78240.06;5299910;28;20423;-66
2023/10/16 12:27:54;;;;;;;3.33;2.15;;;;;;;-145.79;66.99;78246.41;5295844;28;20032;-67
2023/10/16 12:30:27;;;;;;;3.97;2.47;;;;;;;-145.79;67.24;78259.13;5291402;28;20576;-66
2023/10/16 12:32:59;;;;;;;3.13;1.80;;;;;;;-145.79;70.03;78225.22;5295802;28;20036;-66
2023/10/16 12:35:30;;;;;;;2.22;1.80;;;;;;;-145.79;67.72;78223.09;5286415;28;20023;-67
2023/10/16 12:38:05;;;;;;;2.72;1.60;;;;;;;-145.79;66.03;78233.69;5295329;28;20383;-67
2023/10/16 12:40:39;;;;;;;4.60;1.80;;;;;;;-145.79;66.81;78216.72;5293715;28;20493;-68
2023/10/16 12:43:10;;;;;;;1.95;1.25;;;;;;;-145.79;68.69;78195.53;5295112;28;20060;-68
2023/10/16 12:45:41;;;;;;;3.05;1.60;;;;;;;-145.79;65.61;78227.34;5297973;28;20124;-67
2023/10/16 12:48:14;;;;;;;2.90;1.60;;;;;;;-145.79;66.06;78212.50;5285055;28;20024;-67
2023/10/16 12:50:48;;;;;;;2.60;1.70;;;;;;;-145.79;66.81;78208.25;5286801;28;20024;-66
2023/10/16 12:53:20;;;;;;;2.83;1.60;;;;;;;-145.79;66.66;78212.50;5286331;28;20494;-66
2023/10/16 12:55:55;;;;;;;4.97;1.52;;;;;;;-145.79;68.19;78187.06;5273185;28;20040;-67
2023/10/16 12:58:27;;;;;;;2.03;1.30;;;;;;;-145.79;63.42;78218.84;5291856;28;20070;-67
2023/10/16 13:00:58;;;;;;;3.80;1.48;;;;;;;-145.79;63.94;78216.72;5297549;28;20036;-66
2023/10/16 13:03:33;;;;;;;4.15;1.52;;;;;;;-145.79;64.97;78208.25;5282484;28;20380;-67
2023/10/16 13:06:07;;;;;;;3.40;2.67;;;;;;;-145.79;64.32;78216.72;5283772;28;20032;-67
2023/10/16 13:08:39;;;;;;;2.45;1.52;;;;;;;-145.79;66.68;78204.00;5282428;28;20028;-67
2023/10/16 13:11:11;;;;;;;2.92;1.80;;;;;;;-145.79;65.50;78227.34;5296824;28;20025;-67
2023/10/16 13:13:42;;;;;;;4.97;2.58;;;;;;;-145.79;68.04;78187.06;5282740;28;20057;-67
2023/10/16 13:16:24;;;;;;;2.13;1.70;;;;;;;-145.79;67.25;78199.78;5297300;28;20023;-67
2023/10/16 13:18:58;;;;;;;2.75;1.60;;;;;;;-145.79;68.55;78195.53;5293184;28;20408;-67
2023/10/16 13:21:38;;;;;;;3.42;1.90;;;;;;;-145.79;67.82;78182.81;5292266;28;20028;-67
2023/10/16 13:24:10;;;;;;;8.55;7.72;;;;;;;-145.79;67.51;78187.06;5285585;28;20111;-67
2023/10/16 13:26:42;;;;;;;5.70;3.67;;;;;;;-145.79;67.18;78189.19;5281808;28;20028;-66
2023/10/16 13:29:17;;;;;;;4.45;2.80;;;;;;;-145.79;69.15;78165.84;5292030;28;20394;-67
2023/10/16 13:31:49;;;;;;;5.82;2.10;;;;;;;-145.79;70.02;78148.91;5287621;28;20587;-68
2023/10/16 13:34:20;;;;;;;3.42;2.10;;;;;;;-145.79;66.40;78174.34;5288227;28;20032;-65
2023/10/16 13:37:01;;;;;;;5.00;2.28;;;;;;;-145.79;66.76;78174.34;5285369;28;20028;-67
2023/10/16 13:39:33;;;;;;;3.15;2.00;;;;;;;-145.79;66.14;78174.34;5290247;28;20444;-67
2023/10/16 13:42:08;;;;;;;2.28;1.90;;;;;;;-145.79;66.79;78155.25;5282999;28;20524;-69
2023/10/16 13:44:40;;;;;;;2.72;1.90;;;;;;;-145.79;67.70;78157.38;5284092;28;20024;-67
2023/10/16 13:47:13;;;;;;;4.53;2.40;;;;;;;-145.79;64.97;78174.34;5271256;28;20096;-66
2023/10/16 13:49:44;;;;;;;3.15;2.40;;;;;;;-145.79;63.49;78182.81;5273200;28;20124;-66
2023/10/16 13:52:18;;;;;;;3.38;2.30;;;;;;;-145.79;63.87;78182.81;5293358;28;20032;-67
2023/10/16 13:54:52;;;;;;;4.90;1.70;;;;;;;-145.79;62.24;78182.81;5295429;28;20067;-66
2023/10/16 13:57:23;;;;;;;5.40;2.45;;;;;;;-145.79;61.35;78193.41;5287242;28;20071;-67
2023/10/16 13:59:55;;;;;;;4.95;4.45;;;;;;;-145.79;61.84;78191.28;5301581;28;20063;-66
2023/10/16 14:02:26;;;;;;;3.45;2.38;;;;;;;-145.79;62.41;78174.34;5293659;28;20441;-65
2023/10/16 14:04:57;;;;;;;5.85;4.82;;;;;;;-145.79;63.19;78159.50;5291468;28;20020;-66
2023/10/16 14:07:30;;;;;;;3.72;2.33;;;;;;;-145.79;62.96;78172.22;5290586;28;20025;-67
2023/10/16 14:10:03;;;;;;;3.25;2.05;;;;;;;-145.79;62.10;78172.22;5294548;28;20100;-67
2023/10/16 14:12:37;;;;;;;2.60;2.13;;;;;;;-145.79;62.79;78167.97;5277745;28;20035;-67
2023/10/16 14:15:19;;;;;;;2.40;1.98;;;;;;;-145.79;62.67;78153.13;5291605;28;20028;-66
2023/10/16 14:17:53;;;;;;;2.42;1.83;;;;;;;-145.79;65.66;78110.72;5288314;28;20020;-66
2023/10/16 14:20:34;;;;;;;3.75;1.83;;;;;;;-145.79;64.75;78119.22;5277390;28;20358;-66
2023/10/16 14:23:13;;;;;;;16.20;14.50;;;;;;;-145.79;64.15;78106.50;5283287;28;20052;-65
2023/10/16 14:25:48;;;;;;;8.93;7.93;;;;;;;-145.79;62.70;78114.97;5292639;28;20028;-64
2023/10/16 14:31:04;;;;;;;2.78;2.35;;;;;;;-145.79;62.51;78123.44;5282894;28;20028;-65
2023/10/16 14:33:39;;;;;;;4.32;2.25;;;;;;;-145.79;62.14;78129.81;5281237;28;20368;-64
2023/10/16 14:36:11;;;;;;;5.45;2.10;;;;;;;-145.79;61.71;78114.97;5293487;28;20028;-66
2023/10/16 14:38:43;;;;;;;5.30;2.58;;;;;;;-145.79;62.27;78129.81;5292941;28;20039;-66
2023/10/16 14:41:17;;;;;;;5.57;2.13;;;;;;;-145.79;62.91;78114.97;5290749;28;20023;-66
2023/10/16 14:43:50;;;;;;;3.30;2.20;;;;;;;-145.79;62.05;78127.69;5290324;28;20379;-67
2023/10/16 14:46:22;;;;;;;4.82;2.63;;;;;;;-145.79;62.07;78110.72;5292250;28;20024;-68
2023/10/16 14:48:53;;;;;;;3.05;2.30;;;;;;;-145.79;61.91;78100.13;5281129;28;20031;-69
2023/10/16 14:51:25;;;;;;;4.05;2.15;;;;;;;-145.79;61.41;78091.66;5277877;28;20497;-67
2023/10/16 14:53:56;;;;;;;4.05;2.50;;;;;;;-145.79;61.21;78112.84;5289701;28;20124;-69
2023/10/16 14:56:29;;;;;;;3.95;2.22;;;;;;;-145.79;61.28;78114.97;5301730;28;20031;-70
2023/10/16 14:59:00;;;;;;;2.35;1.90;;;;;;;-145.79;62.53;78112.84;5293556;28;20356;-69
2023/10/16 15:01:33;;;;;;;6.78;2.92;;;;;;;-145.79;62.51;78106.50;5288528;28;20036;-70
2023/10/16 15:04:08;;;;;;;3.75;2.53;;;;;;;-145.79;62.35;78117.09;5292327;28;20032;-70
2023/10/16 15:06:41;;;;;;;;;;;;;;;-145.79;63.81;78102.25;5281236;28;20394;-72
2023/10/16 15:09:17;;;;;;;6.35;4.53;;;;;;;-145.79;63.86;78119.22;5265263;28;19917;-69
2023/10/16 15:11:49;;;;;;;4.47;3.40;;;;;;;-145.79;64.23;78119.22;5269560;28;20032;-69
2023/10/16 15:14:21;;;;;;;6.25;2.97;;;;;;;-145.79;63.80;78110.72;5284720;28;20520;-69
2023/10/16 15:16:54;;;;;;;5.78;3.03;;;;;;;-145.79;65.32;78098.00;5282948;28;20436;-68
2023/10/16 15:19:26;;;;;;;6.20;3.28;;;;;;;-145.79;65.37;78098.00;5283734;28;20043;-69
2023/10/16 15:21:58;;;;;;;5.63;2.53;;;;;;;-145.79;64.69;78110.72;5291539;28;20036;-69
2023/10/16 15:24:30;;;;;;;4.65;2.80;;;;;;;-145.79;65.35;78123.44;5286439;28;20067;-69
2023/10/16 15:27:01;;;;;;;6.47;2.72;;;;;;;-145.79;65.36;78129.81;5280938;28;20024;-70
2023/10/16 15:29:33;;;;;;;4.25;3.25;;;;;;;-145.79;65.11;78129.81;5286727;28;20122;-68
2023/10/16 15:32:07;;;;;;;5.80;3.20;;;;;;;-145.79;65.65;78121.34;5289253;28;20020;-68
2023/10/16 15:34:39;;;;;;;5.13;3.43;;;;;;;-145.79;66.09;78119.22;5276423;28;20033;-71
2023/10/16 15:37:12;;;;;;;7.18;5.95;;;;;;;-145.79;66.11;78123.44;5292098;28;20028;-70
2023/10/16 15:39:43;;;;;;;10.05;5.35;;;;;;;-145.79;66.85;78123.44;5287232;28;20487;-71
2023/10/16 15:42:14;;;;;;;5.28;4.03;;;;;;;-145.79;66.01;78148.91;5280471;28;20031;-70
2023/10/16 15:44:46;;;;;;;5.00;3.85;;;;;;;-145.79;66.39;78144.66;5270873;28;20099;-70
2023/10/16 15:47:17;;;;;;;5.13;3.80;;;;;;;-145.79;66.72;78146.78;5288339;28;20024;-72
2023/10/16 15:49:49;;;;;;;6.90;5.45;;;;;;;-145.79;66.64;78142.53;5295206;28;20028;-70
2023/10/16 15:52:21;;;;;;;11.70;5.82;;;;;;;-145.79;66.14;78148.91;5295490;28;20025;-71
2023/10/16 15:54:53;;;;;;;6.38;4.43;;;;;;;-145.79;65.95;78153.13;5273348;28;20483;-70
2023/10/16 15:57:24;;;;;;;5.15;3.65;;;;;;;-145.79;65.58;78159.50;5285507;28;20066;-71
2023/10/16 15:59:56;;;;;;;8.60;4.35;;;;;;;-145.79;66.08;78165.84;5270176;28;20033;-71
2023/10/16 16:02:28;;;;;;;5.45;3.40;;;;;;;-145.79;66.37;78161.63;5296806;28;20059;-69
2023/10/16 16:05:00;;;;;;;6.22;3.30;;;;;;;-145.79;67.22;78157.38;5284487;28;20028;-69
2023/10/16 16:07:31;;;;;;;7.53;5.10;;;;;;;-145.79;67.02;78165.84;5294015;28;20097;-69
2023/10/16 16:10:06;;;;;;;57.65;47.42;;;;;;;-145.79;67.37;78165.84;5292968;28;20016;-69
2023/10/16 16:12:39;;;;;;;14.35;9.32;;;;;;;-145.79;67.85;78167.97;5281338;28;20033;-68
2023/10/16 16:15:16;;;;;;;7.15;4.25;;;;;;;-145.79;67.64;78182.81;5290963;28;20056;-69
2023/10/16 16:17:47;;;;;;;5.57;3.38;;;;;;;-145.79;68.61;78191.28;5297524;28;20099;-69
2023/10/16 16:20:19;;;;;;;4.55;3.20;;;;;;;-145.79;68.06;78195.53;5276976;28;20107;-70
2023/10/16 16:22:50;;;;;;;3.80;2.80;;;;;;;-145.79;68.74;78195.53;5287736;28;20117;-70
2023/10/16 16:25:23;;;;;;;8.60;3.15;;;;;;;-145.79;68.83;78197.66;5280382;28;20100;-69
2023/10/16 16:27:55;;;;;;;4.68;4.00;;;;;;;-145.79;69.85;78212.50;5293586;28;20032;-70
2023/10/16 16:30:27;;;;;;;3.97;3.33;;;;;;;-145.79;70.59;78212.50;5293645;28;20058;-70
2023/10/16 16:32:59;;;;;;;5.68;4.00;;;;;;;-145.79;70.99;78227.34;5282096;28;20510;-69
2023/10/16 16:35:30;;;;;;;4.55;3.30;;;;;;;-145.79;71.35;78223.09;5291745;28;20024;-70
2023/10/16 16:38:07;;;;;;;4.88;2.95;;;;;;;-145.79;70.98;78225.22;5294955;28;20031;-70
2023/10/16 16:40:39;;;;;;;3.65;3.20;;;;;;;-145.79;71.76;78214.63;5291931;28;20385;-70
2023/10/16 16:43:10;;;;;;;6.10;3.33;;;;;;;-145.79;72.48;78233.69;5284201;28;20499;-70
2023/10/16 16:45:41;;;;;;;5.53;3.40;;;;;;;-145.79;72.86;78229.47;5277450;28;20082;-70
2023/10/16 16:48:13;;;;;;;6.05;3.40;;;;;;;-145.79;73.04;78233.69;5287702;28;20024;-70
2023/10/16 16:50:45;;;;;;;5.55;3.15;;;;;;;-145.79;73.07;78229.47;5282977;28;20487;-70
2023/10/16 16:53:17;;;;;;;6.45;3.10;;;;;;;-145.79;73.26;78242.19;5286196;28;20054;-70
